createdAt,value
2024-04-05T14:28:09.790Z,68.60
2024-04-05T14:33:14.009Z,73.50
2024-04-05T14:38:18.389Z,73.70
2024-04-05T14:43:24.893Z,73.50
2024-04-05T14:48:29.180Z,73.60
2024-04-05T14:53:34.717Z,73.90
2024-04-05T14:58:41.097Z,73.70
2024-04-05T15:03:45.411Z,73.70
2024-04-05T15:08:53.581Z,73.90
2024-04-05T15:14:01.359Z,73.70
2024-04-05T15:19:05.636Z,73.10
2024-04-05T15:24:10.268Z,72.50
2024-04-05T15:29:16.753Z,71.90
2024-04-05T15:34:20.847Z,71.10
2024-04-05T15:39:26.321Z,70.60
2024-04-05T15:44:35.941Z,70.20
2024-04-05T15:49:40.780Z,69.70
2024-04-05T15:54:51.159Z,70.00
2024-04-05T15:59:57.640Z,70.50
2024-04-05T16:05:02.156Z,71.00
2024-04-05T16:10:07.896Z,71.20
2024-04-05T16:15:14.055Z,72.00
2024-04-05T16:20:18.648Z,72.20
2024-04-05T16:25:22.761Z,71.40
2024-04-05T16:30:30.719Z,71.30
2024-04-05T16:35:34.796Z,71.50
2024-04-05T16:40:39.391Z,71.20
2024-04-05T16:45:46.255Z,71.30
2024-04-05T16:50:50.539Z,71.40
2024-04-05T16:55:55.066Z,71.60
2024-04-05T17:01:01.372Z,71.50
2024-04-05T17:06:09.866Z,71.70
2024-04-05T17:11:15.340Z,72.40
2024-04-05T17:16:23.435Z,72.80
2024-04-05T17:21:44.931Z,72.90
2024-04-05T17:26:52.741Z,73.20
2024-04-05T17:32:05.044Z,73.70
2024-04-05T17:37:10.038Z,74.20
2024-04-05T17:42:14.248Z,74.60
2024-04-05T17:47:20.183Z,75.10
2024-04-05T17:52:24.524Z,75.50
2024-04-05T17:57:28.717Z,75.90
2024-04-05T18:02:36.676Z,76.40
2024-04-05T18:07:41.205Z,76.90
2024-04-05T18:12:45.325Z,77.50
2024-04-05T18:17:51.960Z,78.40
2024-04-05T18:22:56.161Z,78.80
2024-04-05T18:28:00.418Z,79.10
2024-04-05T18:33:07.850Z,79.40
2024-04-05T18:38:12.889Z,80.00
2024-04-05T18:43:20.732Z,80.20
2024-04-05T18:48:27.194Z,80.40
2024-04-05T18:53:31.554Z,80.80
2024-04-05T18:58:37.258Z,81.30
2024-04-05T19:03:58.945Z,82.30
2024-04-05T19:09:25.330Z,81.90
2024-04-05T19:14:31.342Z,82.30
2024-04-05T19:19:38.068Z,83.00
2024-04-05T19:24:42.696Z,83.50
2024-04-05T19:29:48.467Z,84.20
2024-04-05T19:34:56.050Z,84.70
2024-04-05T19:40:11.719Z,85.30
2024-04-05T19:45:20.290Z,86.10
2024-04-05T19:50:28.082Z,86.80
2024-04-05T19:55:34.921Z,87.60
2024-04-05T20:00:39.449Z,88.30
2024-04-05T20:05:49.449Z,89.10
2024-04-05T20:10:58.862Z,90.00
2024-04-05T20:16:05.343Z,90.10
2024-04-05T20:21:14.684Z,90.30
2024-04-05T20:26:21.052Z,90.50
2024-04-05T20:31:38.497Z,90.70
2024-04-05T20:36:46.742Z,90.80
2024-04-05T20:41:51.068Z,90.90
2024-04-05T20:46:55.375Z,91.10
2024-04-05T20:52:02.486Z,91.20
2024-04-05T20:57:07.511Z,91.30
2024-04-05T21:02:11.693Z,91.50
2024-04-05T21:07:17.742Z,91.60
2024-04-05T21:12:21.998Z,91.60
2024-04-05T21:17:26.064Z,91.80
2024-04-05T21:22:33.018Z,91.70
2024-04-05T21:27:37.050Z,91.80
2024-04-05T21:32:41.385Z,91.90
2024-04-05T21:37:47.520Z,92.00
2024-04-05T21:42:51.655Z,92.10
2024-04-05T21:47:56.082Z,92.30
2024-04-05T21:53:02.806Z,92.40
2024-04-05T21:58:07.141Z,92.50
2024-04-05T22:03:11.390Z,92.60
2024-04-05T22:08:18.733Z,92.70
2024-04-05T22:13:22.839Z,93.10
2024-04-05T22:18:27.733Z,92.90
2024-04-05T22:23:33.747Z,93.00
2024-04-05T22:28:37.887Z,93.20
2024-04-05T22:33:42.031Z,93.40
2024-04-05T22:38:48.620Z,93.70
2024-04-05T22:43:52.601Z,94.00
2024-04-05T22:48:56.895Z,94.40
2024-04-05T22:54:04.401Z,94.80
2024-04-05T22:59:09.540Z,95.20
2024-04-05T23:04:14.005Z,95.60
2024-04-05T23:09:20.056Z,96.10
2024-04-05T23:14:24.189Z,96.50
2024-04-05T23:19:30.227Z,96.80
2024-04-05T23:24:36.159Z,97.20
2024-04-05T23:29:40.468Z,97.50
